Time;durP1;ratioP1;P1;durP2;ratioP2;P2;SDS_P1;SDS_P2;PMS_P1;PMS_P2;Temp;Humidity;BMP_temperature;BMP_pressure;BME280_temperature;BME280_humidity;BME280_pressure;Samples;Min_cycle;Max_cycle;Signal;HPM_P1;HPM_P2
2021/10/01 00:00:08;;;;;;;1.40;0.82;;;11.90;99.90;;;;;;5065540;28;20036;-73
2021/10/01 00:02:34;;;;;;;1.63;0.80;;;11.90;99.90;;;;;;5065125;28;20033;-74
2021/10/01 00:05:00;;;;;;;2.63;0.65;;;11.90;99.90;;;;;;5058563;28;20036;-73
2021/10/01 00:07:27;;;;;;;1.25;0.63;;;11.90;99.90;;;;;;5046532;28;20025;-75
2021/10/01 00:09:54;;;;;;;3.83;0.95;;;11.90;99.90;;;;;;5064448;28;20072;-75
2021/10/01 00:12:20;;;;;;;1.67;1.02;;;11.90;99.90;;;;;;5046717;28;20036;-73
2021/10/01 00:14:46;;;;;;;3.90;0.82;;;11.90;99.90;;;;;;5046383;28;20033;-74
2021/10/01 00:17:12;;;;;;;6.20;1.45;;;11.90;99.90;;;;;;5063243;28;20021;-72
2021/10/01 06:46:51;;;;;;;5.03;0.68;;;11.80;99.90;;;;;;4997532;28;20061;-72
2021/10/01 06:52:19;;;;;;;3.08;0.90;;;11.80;99.90;;;;;;5007359;28;20041;-73
2021/10/01 07:34:49;;;;;;;4.40;1.15;;;12.30;99.90;;;;;;5006250;28;20049;-72
2021/10/01 07:36:38;;;;;;;4.18;0.68;;;12.60;99.90;;;;;;5005613;28;19989;-71
2021/10/01 08:19:57;;;;;;;1.13;0.68;;;14.60;99.90;;;;;;4985251;28;20045;-71
2021/10/01 08:22:23;;;;;;;1.17;0.65;;;14.60;99.90;;;;;;4989748;28;20121;-73
2021/10/01 08:24:49;;;;;;;1.58;0.70;;;14.70;99.90;;;;;;4994949;28;20059;-72
2021/10/01 08:27:16;;;;;;;1.50;0.70;;;14.70;99.90;;;;;;4996348;28;20593;-71
2021/10/01 08:29:42;;;;;;;6.72;0.80;;;14.70;99.90;;;;;;4996523;28;20121;-73
2021/10/01 08:32:08;;;;;;;3.30;0.95;;;14.80;99.90;;;;;;5001918;28;20033;-72
2021/10/01 08:34:42;;;;;;;0.52;0.45;;;14.70;99.90;;;;;;5004386;28;20049;-70
2021/10/01 08:37:09;;;;;;;5.43;0.63;;;14.70;99.90;;;;;;4999493;28;20094;-70
2021/10/01 08:39:36;;;;;;;2.08;0.82;;;14.80;99.90;;;;;;4994057;28;20121;-72
2021/10/01 08:42:03;;;;;;;11.82;0.90;;;14.80;99.90;;;;;;4987637;28;20033;-72
2021/10/01 08:44:31;;;;;;;1.67;0.60;;;14.80;99.90;;;;;;5004588;28;20018;-70
2021/10/01 08:46:58;;;;;;;6.18;0.75;;;14.80;99.90;;;;;;4997902;28;20026;-72
2021/10/01 08:49:26;;;;;;;8.18;0.73;;;14.90;99.90;;;;;;4985578;28;20043;-73
2021/10/01 08:51:52;;;;;;;6.82;0.30;;;15.00;99.90;;;;;;4991177;28;20026;-70
2021/10/01 08:54:19;;;;;;;1.27;0.60;;;15.10;99.90;;;;;;5004423;28;20022;-71
2021/10/01 08:56:46;;;;;;;1.40;0.55;;;15.10;99.90;;;;;;5005234;28;20390;-72
2021/10/01 08:59:12;;;;;;;3.58;0.88;;;15.30;99.90;;;;;;5003061;28;20090;-70
2021/10/01 09:01:38;;;;;;;0.63;0.57;;;15.30;99.90;;;;;;4997833;28;20041;-72
2021/10/01 09:04:12;;;;;;;0.55;0.22;;;15.30;99.90;;;;;;4992344;28;20119;-71
2021/10/01 09:06:38;;;;;;;1.92;0.93;;;15.60;99.90;;;;;;4983369;28;20035;-72
2021/10/01 09:09:05;;;;;;;5.90;0.60;;;15.60;99.90;;;;;;4990294;28;20073;-74
2021/10/01 09:11:37;;;;;;;1.15;0.63;;;15.60;99.90;;;;;;5001606;28;20077;-72
2021/10/01 09:14:07;;;;;;;1.13;0.55;;;15.70;99.90;;;;;;4994540;28;20427;-71
2021/10/01 09:16:35;;;;;;;2.47;0.82;;;15.70;99.90;;;;;;4999972;28;20117;-73
2021/10/01 09:19:04;;;;;;;1.20;0.40;;;15.70;99.90;;;;;;4991622;28;20039;-74
2021/10/01 09:21:39;;;;;;;6.50;0.70;;;15.80;99.90;;;;;;4974806;28;20053;-71
2021/10/01 09:24:05;;;;;;;;;;;15.80;99.90;;;;;;4994002;28;20027;-71
2021/10/01 09:26:33;;;;;;;2.42;0.50;;;15.80;99.90;;;;;;4996332;28;20004;-71
2021/10/01 09:29:01;;;;;;;9.63;0.60;;;16.00;99.90;;;;;;4989505;28;20047;-70
2021/10/01 09:31:47;;;;;;;15.63;0.80;;;16.10;99.90;;;;;;4994199;28;20054;-72
2021/10/01 09:34:17;;;;;;;6.70;0.40;;;16.20;99.90;;;;;;4996208;28;20034;-71
2021/10/01 09:36:56;;;;;;;1.30;0.70;;;16.10;99.90;;;;;;5000583;28;20033;-74
2021/10/01 09:39:28;;;;;;;2.60;0.75;;;16.20;99.90;;;;;;5000986;28;20487;-76
2021/10/01 09:41:59;;;;;;;2.60;0.35;;;16.20;99.90;;;;;;5000938;28;20027;-77
2021/10/01 09:44:28;;;;;;;2.13;0.52;;;16.20;99.90;;;;;;4987806;28;20036;-72
2021/10/01 09:46:56;;;;;;;1.35;0.52;;;16.30;99.90;;;;;;5002208;28;20022;-72
2021/10/01 09:49:30;;;;;;;2.45;0.60;;;16.40;99.90;;;;;;5004606;28;20042;-71
2021/10/01 09:51:57;;;;;;;3.80;1.00;;;16.30;99.90;;;;;;4993299;28;20035;-72
2021/10/01 09:54:26;;;;;;;1.20;0.55;;;16.20;99.90;;;;;;5007660;28;20034;-73
2021/10/01 09:56:52;;;;;;;0.90;0.55;;;16.20;99.90;;;;;;4993240;28;20031;-74
2021/10/01 09:59:19;;;;;;;2.33;0.77;;;16.10;99.90;;;;;;4988174;28;20022;-75
2021/10/01 10:01:58;;;;;;;1.13;0.50;;;16.10;99.90;;;;;;4989043;28;20035;-76
2021/10/01 10:04:26;;;;;;;1.67;0.88;;;16.10;99.90;;;;;;4986661;28;20039;-73
2021/10/01 10:06:54;;;;;;;2.83;0.73;;;16.10;99.90;;;;;;4988567;28;20031;-73
2021/10/01 10:09:32;;;;;;;1.08;0.70;;;16.00;99.90;;;;;;5003530;28;20092;-72
2021/10/01 10:11:57;;;;;;;1.20;0.63;;;16.20;99.90;;;;;;5007502;28;20112;-72
2021/10/01 10:14:23;;;;;;;4.40;0.50;;;16.30;99.90;;;;;;5002078;28;20034;-72
2021/10/01 10:16:49;;;;;;;0.45;0.43;;;16.30;99.90;;;;;;4989998;28;20027;-74
2021/10/01 10:19:23;;;;;;;6.82;0.85;;;16.40;99.90;;;;;;4995874;28;20094;-72
2021/10/01 10:21:49;;;;;;;1.20;0.47;;;16.40;99.90;;;;;;4987487;28;20038;-72
2021/10/01 10:24:18;;;;;;;5.68;1.08;;;16.50;99.90;;;;;;4998758;28;20023;-72
2021/10/01 10:26:46;;;;;;;1.58;0.73;;;16.60;99.90;;;;;;4995171;28;20799;-74
2021/10/01 10:29:13;;;;;;;1.23;0.80;;;16.70;99.90;;;;;;4986638;28;20417;-71
2021/10/01 10:31:44;;;;;;;0.85;0.45;;;16.60;99.90;;;;;;4987193;28;20082;-75
2021/10/01 10:34:24;;;;;;;1.38;0.75;;;16.60;99.90;;;;;;5003284;28;20504;-76
2021/10/01 10:37:09;;;;;;;1.52;0.77;;;16.80;99.90;;;;;;4997563;28;20036;-74
2021/10/01 10:39:40;;;;;;;2.72;0.70;;;16.90;99.90;;;;;;4987633;28;20031;-74
2021/10/01 10:42:12;;;;;;;3.90;0.77;;;17.10;99.90;;;;;;4988123;28;20053;-75
2021/10/01 10:44:50;;;;;;;0.93;0.45;;;17.30;99.90;;;;;;4987239;28;20027;-74
2021/10/01 10:47:46;;;;;;;7.85;0.98;;;17.50;99.90;;;;;;4987678;28;20067;-76
2021/10/01 10:50:21;;;;;;;4.55;0.50;;;17.50;99.90;;;;;;4987805;28;20039;-75
2021/10/01 10:53:16;;;;;;;1.73;0.70;;;17.60;99.90;;;;;;4970344;28;20041;-75
2021/10/01 10:55:51;;;;;;;;;;;17.80;99.90;;;;;;4988334;28;20475;-74
2021/10/01 10:58:26;;;;;;;;;;;17.90;99.90;;;;;;4988825;28;19913;-75
2021/10/01 11:00:56;;;;;;;3.25;1.23;;;17.90;99.90;;;;;;4969988;28;19906;-76
2021/10/01 11:03:29;;;;;;;1.65;0.70;;;17.90;99.90;;;;;;4988028;28;20026;-74
2021/10/01 11:06:10;;;;;;;2.00;0.50;;;17.80;99.90;;;;;;4987627;28;20027;-75
2021/10/01 11:08:38;;;;;;;0.73;0.63;;;17.60;99.90;;;;;;4986664;28;20071;-75
2021/10/01 11:11:05;;;;;;;0.90;0.43;;;17.60;99.90;;;;;;4993358;28;20478;-74
2021/10/01 11:13:33;;;;;;;14.25;1.55;;;17.60;99.90;;;;;;4998770;28;20138;-75
2021/10/01 11:16:08;;;;;;;5.57;0.77;;;17.60;99.90;;;;;;4996974;28;20110;-73
2021/10/01 11:18:44;;;;;;;8.68;1.05;;;17.60;99.90;;;;;;5004812;28;20389;-74
2021/10/01 11:21:25;;;;;;;2.65;0.47;;;17.60;99.90;;;;;;4985718;28;20522;-72
2021/10/01 11:24:06;;;;;;;7.43;1.13;;;17.60;99.90;;;;;;4986572;28;20031;-75
2021/10/01 11:26:33;;;;;;;0.63;0.40;;;17.50;99.90;;;;;;4987047;28;20035;-75
2021/10/01 11:29:00;;;;;;;12.95;0.88;;;17.50;99.90;;;;;;4985800;28;20062;-74
2021/10/01 11:31:40;;;;;;;3.35;0.70;;;17.50;99.90;;;;;;4986644;28;20090;-75
2021/10/01 11:34:07;;;;;;;1.38;0.55;;;17.60;99.90;;;;;;4987000;28;20062;-74
2021/10/01 11:36:36;;;;;;;9.60;1.10;;;17.60;99.90;;;;;;4970154;28;20034;-74
2021/10/01 11:39:15;;;;;;;2.33;0.70;;;17.70;99.90;;;;;;4992275;28;20037;-76
2021/10/01 11:41:45;;;;;;;2.60;0.85;;;17.70;99.90;;;;;;4992732;28;20103;-75
2021/10/01 11:44:13;;;;;;;1.98;0.57;;;17.70;99.90;;;;;;4987682;28;20089;-73
2021/10/01 11:46:48;;;;;;;2.67;0.60;;;17.70;99.90;;;;;;4958354;28;20077;-75
2021/10/01 11:49:18;;;;;;;2.03;0.60;;;17.70;99.90;;;;;;4967061;28;20039;-75
2021/10/01 11:52:03;;;;;;;3.47;0.75;;;17.80;99.90;;;;;;4979811;28;20023;-73
2021/10/01 11:54:31;;;;;;;6.78;0.98;;;17.90;99.90;;;;;;4970754;28;20059;-72
2021/10/01 11:57:15;;;;;;;2.58;1.15;;;18.00;99.90;;;;;;4980830;28;20019;-72
2021/10/01 12:00:08;;;;;;;1.07;0.60;;;18.30;99.90;;;;;;4977595;28;20402;-72
2021/10/01 12:02:35;;;;;;;1.70;0.60;;;18.40;99.90;;;;;;4974455;28;20043;-74
2021/10/01 12:05:32;;;;;;;3.95;1.00;;;18.30;99.90;;;;;;4973522;28;20023;-75
2021/10/01 12:08:05;;;;;;;1.65;0.70;;;18.30;99.90;;;;;;4953656;29;20059;-72
2021/10/01 12:10:35;;;;;;;1.58;0.65;;;18.20;99.90;;;;;;4965644;29;20542;-72
2021/10/01 12:13:25;;;;;;;7.20;1.08;;;18.30;99.90;;;;;;4971002;28;20043;-73
2021/10/01 12:15:57;;;;;;;3.47;0.77;;;18.20;99.90;;;;;;4975692;28;20027;-75
2021/10/01 12:18:38;;;;;;;2.03;0.52;;;18.60;99.90;;;;;;4975205;28;20035;-73
2021/10/01 12:21:10;;;;;;;1.73;0.80;;;19.30;99.90;;;;;;4981599;28;20046;-74
2021/10/01 12:23:40;;;;;;;0.43;0.28;;;19.90;99.90;;;;;;4981843;28;20046;-73
2021/10/01 12:26:24;;;;;;;5.45;0.85;;;20.30;99.90;;;;;;4969118;28;20055;-72
2021/10/01 12:29:03;;;;;;;6.20;1.17;;;20.50;99.90;;;;;;4976002;28;20125;-74
2021/10/01 12:31:41;;;;;;;5.00;0.55;;;20.40;99.90;;;;;;4967908;28;20027;-73
2021/10/01 12:34:21;;;;;;;2.75;0.68;;;20.20;99.90;;;;;;4966721;29;20027;-74
2021/10/01 12:36:54;;;;;;;1.58;0.40;;;20.00;99.90;;;;;;4966890;29;20075;-72
2021/10/01 12:39:23;;;;;;;6.45;1.00;;;19.80;99.90;;;;;;4985184;28;20019;-72
2021/10/01 12:42:02;;;;;;;1.65;0.47;;;19.50;99.90;;;;;;4968667;28;20057;-72
2021/10/01 12:44:43;;;;;;;1.95;0.90;;;19.30;99.90;;;;;;4984548;28;20070;-73
2021/10/01 12:47:14;;;;;;;5.22;1.33;;;19.20;99.90;;;;;;4985300;28;20517;-72
2021/10/01 12:49:41;;;;;;;1.52;0.55;;;19.10;99.90;;;;;;4985535;28;20073;-69
2021/10/01 12:52:26;;;;;;;3.72;0.90;;;19.30;99.90;;;;;;4985434;28;20045;-71
2021/10/01 12:54:59;;;;;;;3.25;1.15;;;19.20;99.90;;;;;;4985802;28;20106;-74
2021/10/01 12:57:28;;;;;;;2.83;0.70;;;19.20;99.90;;;;;;5000777;28;20026;-73
2021/10/01 13:00:18;;;;;;;10.57;0.82;;;19.30;99.90;;;;;;5004494;28;20034;-73
2021/10/01 13:02:53;;;;;;;3.22;0.80;;;19.30;99.90;;;;;;4994866;28;20035;-73
2021/10/01 13:05:23;;;;;;;0.65;0.52;;;19.10;99.90;;;;;;5003360;28;20031;-74
2021/10/01 13:08:08;;;;;;;0.77;0.40;;;19.00;99.90;;;;;;4994605;28;20034;-71
2021/10/01 13:10:56;;;;;;;2.03;0.73;;;18.80;99.90;;;;;;4983423;28;20121;-75
2021/10/01 13:13:23;;;;;;;5.70;0.40;;;18.70;99.90;;;;;;4985035;28;20113;-76
2021/10/01 13:15:58;;;;;;;1.98;0.77;;;18.50;99.90;;;;;;4984477;28;20034;-74
2021/10/01 13:18:32;;;;;;;2.15;0.57;;;18.40;99.90;;;;;;4968234;28;20034;-73
2021/10/01 13:21:24;;;;;;;1.65;0.40;;;18.30;99.90;;;;;;4985049;28;20478;-75
2021/10/01 13:23:57;;;;;;;2.05;1.10;;;18.10;99.90;;;;;;4969764;28;20552;-77
2021/10/01 13:26:48;;;;;;;7.40;0.70;;;18.10;99.90;;;;;;4989506;28;20038;-75
2021/10/01 13:29:13;;;;;;;0.80;0.45;;;18.00;99.90;;;;;;4988917;28;20049;-75
2021/10/01 13:31:48;;;;;;;5.63;0.90;;;18.00;99.90;;;;;;4989422;28;20039;-75
2021/10/01 13:34:16;;;;;;;4.45;0.70;;;18.00;99.90;;;;;;4989598;28;20034;-74
2021/10/01 13:36:42;;;;;;;1.73;0.45;;;18.00;99.90;;;;;;4988856;28;20508;-75
2021/10/01 13:39:09;;;;;;;6.50;0.85;;;18.00;99.90;;;;;;4991340;28;20026;-72
2021/10/01 13:41:35;;;;;;;2.17;0.88;;;18.00;99.90;;;;;;4996453;28;20037;-75
2021/10/01 13:44:05;;;;;;;1.55;0.70;;;18.00;99.90;;;;;;5001135;28;20066;-76
2021/10/01 13:46:31;;;;;;;2.55;0.60;;;18.00;99.90;;;;;;5000029;28;20046;-74
2021/10/01 13:48:56;;;;;;;1.77;0.52;;;18.00;99.90;;;;;;4996147;28;20038;-74
2021/10/01 13:51:22;;;;;;;3.42;1.05;;;18.10;99.90;;;;;;4989148;28;20375;-75
2021/10/01 13:53:49;;;;;;;1.42;0.60;;;18.20;99.90;;;;;;4995235;28;20445;-76
2021/10/01 13:56:15;;;;;;;3.90;1.02;;;18.30;99.90;;;;;;4998968;28;20034;-74
2021/10/01 13:58:40;;;;;;;8.32;1.02;;;18.40;99.90;;;;;;5003101;28;20109;-71
2021/10/01 14:01:06;;;;;;;1.23;0.65;;;18.40;99.90;;;;;;5008015;28;20031;-74
2021/10/01 14:03:33;;;;;;;4.13;0.45;;;18.30;99.90;;;;;;5004620;28;20026;-74
2021/10/01 14:06:02;;;;;;;1.70;0.50;;;18.20;99.90;;;;;;4980461;28;20478;-73
2021/10/01 14:08:27;;;;;;;2.38;0.77;;;18.20;99.90;;;;;;5002738;28;20026;-73
2021/10/01 14:10:53;;;;;;;3.22;1.00;;;18.20;99.90;;;;;;4998209;28;20030;-74
2021/10/01 14:13:19;;;;;;;2.58;0.90;;;18.10;99.90;;;;;;4996390;28;20038;-73
2021/10/01 14:15:48;;;;;;;1.77;0.65;;;18.10;99.90;;;;;;5000250;28;20484;-75
2021/10/01 14:18:16;;;;;;;4.63;0.77;;;18.20;99.90;;;;;;4994373;28;20030;-73
2021/10/01 14:20:43;;;;;;;1.05;0.60;;;18.20;99.90;;;;;;4998097;28;20041;-73
2021/10/01 14:23:10;;;;;;;1.45;0.57;;;18.20;99.90;;;;;;4996978;28;20031;-73
2021/10/01 14:25:37;;;;;;;1.45;0.52;;;18.20;99.90;;;;;;4988211;28;20050;-75
2021/10/01 14:28:04;;;;;;;4.80;0.60;;;18.20;99.90;;;;;;4995438;28;20098;-73
2021/10/01 14:30:32;;;;;;;0.40;0.30;;;18.20;99.90;;;;;;5001170;28;20038;-74
2021/10/01 14:32:59;;;;;;;3.05;0.65;;;18.20;99.90;;;;;;4990000;28;20030;-73
2021/10/01 14:35:26;;;;;;;9.27;1.33;;;18.10;99.90;;;;;;4996716;28;20486;-75
2021/10/01 14:37:55;;;;;;;1.88;0.52;;;18.00;99.90;;;;;;5002280;28;20049;-74
2021/10/01 14:40:22;;;;;;;1.42;0.63;;;17.90;99.90;;;;;;5007329;28;20072;-74
2021/10/01 14:42:48;;;;;;;1.25;0.65;;;18.00;99.90;;;;;;4999535;28;20521;-75
2021/10/01 14:45:17;;;;;;;4.55;0.65;;;18.00;99.90;;;;;;5004992;28;20061;-73
2021/10/01 14:47:43;;;;;;;1.33;0.60;;;18.00;99.90;;;;;;4997308;28;20117;-73
2021/10/01 14:50:11;;;;;;;1.30;0.60;;;18.10;99.90;;;;;;4998554;28;20510;-72
2021/10/01 14:52:38;;;;;;;4.15;0.63;;;18.10;99.90;;;;;;4998748;28;20033;-74
2021/10/01 14:55:06;;;;;;;1.05;0.50;;;18.10;99.90;;;;;;5000884;28;20031;-75
2021/10/01 14:57:32;;;;;;;3.03;0.63;;;18.20;99.90;;;;;;5000270;28;20470;-74
2021/10/01 14:59:58;;;;;;;3.85;0.45;;;18.10;99.90;;;;;;4999966;28;20046;-74
2021/10/01 15:02:24;;;;;;;0.88;0.40;;;18.10;99.90;;;;;;4995206;28;20035;-75
2021/10/01 15:05:01;;;;;;;2.05;0.90;;;18.20;99.90;;;;;;4995640;28;20026;-75
2021/10/01 15:07:26;;;;;;;1.10;0.50;;;18.20;99.90;;;;;;4996995;28;20050;-74
2021/10/01 15:09:53;;;;;;;0.73;0.30;;;18.30;99.90;;;;;;4990283;28;20035;-75
2021/10/01 15:12:19;;;;;;;1.23;0.60;;;18.10;99.90;;;;;;4989303;28;20066;-74
2021/10/01 15:14:44;;;;;;;7.20;0.57;;;18.30;99.90;;;;;;4994579;28;20030;-73
2021/10/01 15:17:10;;;;;;;2.13;0.77;;;18.30;99.90;;;;;;4997816;28;20549;-74
2021/10/01 15:19:38;;;;;;;1.10;0.50;;;18.30;99.90;;;;;;4999164;28;20045;-75
2021/10/01 15:22:04;;;;;;;0.88;0.30;;;18.00;99.90;;;;;;4999407;28;20117;-73
2021/10/01 15:24:30;;;;;;;3.22;0.55;;;18.10;99.90;;;;;;4984376;28;20122;-72
2021/10/01 15:26:59;;;;;;;0.80;0.40;;;18.00;99.90;;;;;;4997850;28;20030;-73
2021/10/01 15:29:25;;;;;;;5.78;0.50;;;17.90;99.90;;;;;;5001706;28;20039;-74
2021/10/01 15:31:55;;;;;;;0.57;0.40;;;17.90;99.90;;;;;;4997609;28;20061;-76
2021/10/01 15:34:22;;;;;;;2.15;0.60;;;17.80;99.90;;;;;;5005453;28;20026;-74
2021/10/01 15:36:47;;;;;;;2.17;0.43;;;17.80;99.90;;;;;;5005525;28;20053;-74
2021/10/01 15:39:13;;;;;;;2.78;0.80;;;17.70;99.90;;;;;;4999431;28;20034;-74
2021/10/01 15:41:38;;;;;;;1.25;0.73;;;17.70;99.90;;;;;;4990510;28;20022;-74
2021/10/01 15:44:04;;;;;;;2.47;0.73;;;17.70;99.90;;;;;;5005503;28;20031;-75
2021/10/01 15:46:30;;;;;;;0.73;0.40;;;17.60;99.90;;;;;;5005372;28;20150;-75
2021/10/01 15:49:04;;;;;;;0.98;0.60;;;17.50;99.90;;;;;;5005624;28;20049;-77
2021/10/01 15:51:29;;;;;;;1.00;0.38;;;17.50;99.90;;;;;;5005812;28;20033;-74
2021/10/01 15:54:04;;;;;;;0.77;0.50;;;17.40;99.90;;;;;;5005127;28;20042;-74
2021/10/01 15:56:30;;;;;;;2.55;0.95;;;17.30;99.90;;;;;;5002147;28;20030;-74
2021/10/01 15:58:58;;;;;;;4.93;1.05;;;17.40;99.90;;;;;;4993690;28;20027;-72
2021/10/01 16:01:24;;;;;;;1.90;0.40;;;17.30;99.90;;;;;;4993183;28;20046;-71
2021/10/01 16:03:51;;;;;;;3.45;0.68;;;17.20;99.90;;;;;;4994826;28;20035;-72
2021/10/01 16:06:18;;;;;;;0.45;0.38;;;17.10;99.90;;;;;;4998260;28;20086;-73
2021/10/01 16:08:44;;;;;;;0.70;0.50;;;17.10;99.90;;;;;;4977454;28;20042;-72
2021/10/01 16:11:09;;;;;;;6.32;0.50;;;17.10;99.90;;;;;;4984564;28;20035;-73
2021/10/01 16:13:35;;;;;;;1.77;0.60;;;17.00;99.90;;;;;;4986191;28;20033;-74
2021/10/01 16:16:01;;;;;;;1.25;0.68;;;16.90;99.90;;;;;;4985354;28;20030;-74
2021/10/01 16:18:26;;;;;;;0.85;0.40;;;16.90;99.90;;;;;;4985853;28;20030;-74
2021/10/01 16:20:52;;;;;;;0.90;0.32;;;16.90;99.90;;;;;;4986161;28;20207;-74
2021/10/01 16:23:22;;;;;;;3.85;0.52;;;16.80;99.90;;;;;;4968370;28;20031;-75
2021/10/01 16:25:52;;;;;;;0.50;0.38;;;16.80;99.90;;;;;;4986014;28;20035;-75
2021/10/01 16:28:20;;;;;;;0.22;0.20;;;16.70;99.90;;;;;;4968829;28;20106;-75
2021/10/01 16:30:48;;;;;;;2.25;0.70;;;16.70;99.90;;;;;;4967742;28;20045;-75
2021/10/01 16:33:16;;;;;;;7.25;0.95;;;16.60;99.90;;;;;;4985557;28;20027;-74
2021/10/01 16:35:47;;;;;;;3.05;1.08;;;16.50;99.90;;;;;;4968497;28;20058;-74
2021/10/01 16:38:14;;;;;;;1.00;0.57;;;16.50;99.90;;;;;;4968463;28;20577;-75
2021/10/01 16:40:44;;;;;;;5.72;0.68;;;16.30;99.90;;;;;;4989101;28;20038;-74
2021/10/01 16:43:15;;;;;;;1.45;0.55;;;16.30;99.90;;;;;;5005589;28;20022;-74
2021/10/01 16:45:42;;;;;;;1.27;0.65;;;16.30;99.90;;;;;;4997002;28;20054;-74
2021/10/01 16:48:08;;;;;;;4.88;0.65;;;16.20;99.90;;;;;;4986287;28;20035;-74
2021/10/01 16:50:37;;;;;;;1.33;0.50;;;16.10;99.90;;;;;;5004828;28;20085;-74
2021/10/01 16:53:03;;;;;;;4.88;1.20;;;16.10;99.90;;;;;;4990113;28;20367;-74
2021/10/01 16:55:42;;;;;;;14.60;0.73;;;16.00;99.90;;;;;;5004743;28;20058;-75
2021/10/01 16:58:08;;;;;;;1.60;0.55;;;16.00;99.90;;;;;;5003935;28;20093;-74
2021/10/01 17:00:35;;;;;;;0.77;0.32;;;15.90;99.90;;;;;;5004562;28;20030;-73
2021/10/01 17:03:02;;;;;;;3.00;0.82;;;15.80;99.90;;;;;;5004226;28;20034;-73
2021/10/01 17:05:40;;;;;;;9.13;0.95;;;15.70;99.90;;;;;;5004794;28;20078;-74
2021/10/01 17:08:05;;;;;;;2.35;0.45;;;15.70;99.90;;;;;;5004174;28;20019;-74
2021/10/01 17:10:31;;;;;;;2.10;0.65;;;15.60;99.90;;;;;;5004919;28;20053;-75
2021/10/01 17:12:57;;;;;;;1.45;0.75;;;15.60;99.90;;;;;;4998577;28;20068;-74
2021/10/01 17:15:25;;;;;;;3.33;0.75;;;15.40;99.90;;;;;;5000227;28;20430;-75
2021/10/01 17:17:51;;;;;;;2.00;0.60;;;15.50;99.90;;;;;;4985560;28;20029;-75
2021/10/01 17:20:20;;;;;;;2.78;0.82;;;15.40;99.90;;;;;;4998897;28;20026;-74
2021/10/01 17:22:48;;;;;;;1.05;0.60;;;15.40;99.90;;;;;;5004835;28;20030;-73
2021/10/01 17:25:13;;;;;;;0.57;0.50;;;15.30;99.90;;;;;;4991237;28;20106;-74
2021/10/01 17:27:39;;;;;;;0.80;0.40;;;15.30;99.90;;;;;;4984814;28;20422;-74
2021/10/01 17:30:06;;;;;;;4.03;0.90;;;15.20;99.90;;;;;;4985157;28;20042;-74
2021/10/01 17:32:32;;;;;;;1.75;0.30;;;15.20;99.90;;;;;;4984223;28;20027;-75
2021/10/01 17:34:57;;;;;;;1.38;0.73;;;15.20;99.90;;;;;;5001295;28;20022;-74
2021/10/01 17:37:32;;;;;;;1.80;0.77;;;15.10;99.90;;;;;;4987207;28;20045;-75
2021/10/01 17:39:58;;;;;;;1.08;0.60;;;15.10;99.90;;;;;;4986706;28;20123;-75
2021/10/01 17:42:25;;;;;;;0.70;0.60;;;15.10;99.90;;;;;;5004104;28;20029;-75
2021/10/01 17:44:53;;;;;;;6.60;0.90;;;15.00;99.90;;;;;;5003389;28;20051;-76
2021/10/01 17:47:23;;;;;;;1.27;0.47;;;15.00;99.90;;;;;;5004297;28;20026;-76
2021/10/01 17:49:49;;;;;;;13.75;0.65;;;15.00;99.90;;;;;;5004091;28;20093;-75
2021/10/01 17:52:15;;;;;;;2.55;0.65;;;14.90;99.90;;;;;;5004003;28;20041;-74
2021/10/01 17:54:42;;;;;;;6.30;0.50;;;14.90;99.90;;;;;;4986476;28;20030;-74
2021/10/01 17:57:08;;;;;;;3.00;0.63;;;14.90;99.90;;;;;;5004253;28;20031;-74
2021/10/01 17:59:33;;;;;;;1.35;0.50;;;14.80;99.90;;;;;;5003894;28;20030;-75
2021/10/01 18:01:59;;;;;;;7.43;0.70;;;14.80;99.90;;;;;;5002677;28;20076;-74
2021/10/01 18:04:27;;;;;;;1.75;0.75;;;14.80;99.90;;;;;;5003397;28;20165;-75
2021/10/01 18:06:58;;;;;;;2.05;0.82;;;14.80;99.90;;;;;;5004397;28;20145;-77
2021/10/01 18:09:26;;;;;;;1.17;0.80;;;14.80;99.90;;;;;;4986440;28;20073;-76
2021/10/01 18:11:52;;;;;;;0.52;0.52;;;14.80;99.90;;;;;;4994658;28;20062;-74
2021/10/01 18:14:21;;;;;;;2.33;0.90;;;14.80;99.90;;;;;;5000836;28;20030;-75
2021/10/01 18:16:49;;;;;;;1.92;0.63;;;14.80;99.90;;;;;;4996414;28;20046;-75
2021/10/01 18:19:15;;;;;;;3.20;0.82;;;14.70;99.90;;;;;;4997258;28;20030;-74
2021/10/01 18:21:41;;;;;;;5.60;0.95;;;14.70;99.90;;;;;;4993368;28;20041;-76
2021/10/01 18:24:06;;;;;;;1.92;0.95;;;14.70;99.90;;;;;;5002876;28;20037;-75
2021/10/01 18:26:33;;;;;;;5.18;1.08;;;14.60;99.90;;;;;;5006724;28;20022;-75
2021/10/01 18:28:59;;;;;;;4.43;1.10;;;14.60;99.90;;;;;;5000662;28;20030;-75
2021/10/01 18:31:25;;;;;;;1.58;0.68;;;14.60;99.90;;;;;;4986964;28;20237;-74
2021/10/01 18:33:51;;;;;;;1.65;0.60;;;14.60;99.90;;;;;;4987750;28;20082;-75
2021/10/01 18:36:20;;;;;;;2.45;0.65;;;14.60;99.90;;;;;;4994746;28;20026;-75
2021/10/01 18:38:51;;;;;;;2.38;0.70;;;14.60;99.90;;;;;;5005546;28;20034;-74
2021/10/01 18:41:18;;;;;;;1.33;0.80;;;14.50;99.90;;;;;;4989038;28;20386;-75
2021/10/01 18:43:45;;;;;;;1.60;0.75;;;14.50;99.90;;;;;;4988292;28;20030;-74
2021/10/01 18:46:12;;;;;;;4.93;0.80;;;14.50;99.90;;;;;;5006191;28;20051;-73
2021/10/01 18:48:42;;;;;;;7.60;0.60;;;14.50;99.90;;;;;;5000349;28;20041;-74
2021/10/01 18:51:08;;;;;;;3.13;1.15;;;14.60;99.90;;;;;;5002150;28;20030;-73
2021/10/01 18:53:33;;;;;;;1.58;0.60;;;14.40;99.90;;;;;;5005779;28;20038;-74
2021/10/01 18:56:01;;;;;;;1.50;0.70;;;14.40;99.90;;;;;;5005973;28;20033;-74
2021/10/01 18:58:28;;;;;;;1.23;0.50;;;14.40;99.90;;;;;;4985022;28;20061;-75
2021/10/01 19:00:59;;;;;;;7.60;1.45;;;14.40;99.90;;;;;;5006279;28;20058;-75
2021/10/01 19:03:25;;;;;;;6.18;2.22;;;14.40;99.90;;;;;;4988678;28;20390;-74
2021/10/01 19:05:58;;;;;;;1.48;0.75;;;14.40;99.90;;;;;;5005744;28;20082;-75
2021/10/01 19:08:31;;;;;;;2.92;0.98;;;14.40;99.90;;;;;;5004097;28;20035;-74
2021/10/01 19:10:58;;;;;;;2.15;0.85;;;14.40;99.90;;;;;;5006471;28;20046;-74
2021/10/01 19:13:23;;;;;;;3.28;0.93;;;14.30;99.90;;;;;;5006322;28;20030;-74
2021/10/01 19:15:50;;;;;;;1.45;0.73;;;14.30;99.90;;;;;;5000519;28;20034;-73
2021/10/01 19:18:16;;;;;;;1.02;0.47;;;14.30;99.90;;;;;;4992627;28;20088;-74
2021/10/01 19:20:42;;;;;;;1.80;1.02;;;14.30;99.90;;;;;;5005666;28;20030;-74
2021/10/01 19:23:45;;;;;;;2.13;0.82;;;14.30;99.90;;;;;;5006720;28;20023;-74
2021/10/01 19:31:12;;;;;;;1.35;0.45;;;14.30;99.90;;;;;;5005529;28;20056;-75
2021/10/01 19:33:47;;;;;;;8.77;1.02;;;14.30;99.90;;;;;;4988828;28;20943;-74
2021/10/01 19:36:13;;;;;;;2.90;1.00;;;14.30;99.90;;;;;;5006325;28;20113;-73
2021/10/01 19:38:39;;;;;;;2.30;1.00;;;14.30;99.90;;;;;;5006064;28;20401;-73
2021/10/01 19:41:04;;;;;;;0.63;0.40;;;14.30;99.90;;;;;;5005588;28;20429;-73
2021/10/01 19:43:30;;;;;;;5.63;0.90;;;14.30;99.90;;;;;;5005564;28;20030;-73
2021/10/01 19:45:57;;;;;;;1.83;1.08;;;14.30;99.90;;;;;;5005186;28;20050;-74
2021/10/01 19:48:22;;;;;;;1.15;0.60;;;14.30;99.90;;;;;;5005619;28;20022;-73
2021/10/01 19:50:49;;;;;;;0.95;0.50;;;14.30;99.90;;;;;;5005754;28;20038;-75
2021/10/01 19:53:15;;;;;;;2.10;0.65;;;14.30;99.90;;;;;;4987662;28;20039;-74
2021/10/01 19:55:44;;;;;;;1.73;0.82;;;14.20;99.90;;;;;;5005473;28;20073;-74
2021/10/01 19:58:10;;;;;;;4.32;0.80;;;14.20;99.90;;;;;;5005341;28;20088;-74
2021/10/01 20:03:18;;;;;;;8.60;1.00;;;14.20;99.90;;;;;;4985993;28;20037;-73
2021/10/01 20:05:43;;;;;;;1.95;0.85;;;14.20;99.90;;;;;;4986107;28;20030;-73
2021/10/01 20:08:09;;;;;;;1.83;0.68;;;14.20;99.90;;;;;;4989768;28;20049;-74
2021/10/01 20:10:36;;;;;;;1.83;0.40;;;14.30;99.90;;;;;;4994631;28;20038;-72
2021/10/01 20:13:01;;;;;;;1.30;0.77;;;14.20;99.90;;;;;;4991680;28;20031;-74
2021/10/01 20:15:27;;;;;;;1.70;0.60;;;14.20;99.90;;;;;;4984236;28;20095;-73
2021/10/01 20:17:56;;;;;;;1.67;0.90;;;14.20;99.90;;;;;;4997358;28;20029;-74
2021/10/01 20:47:25;;;;;;;2.58;0.75;;;14.10;99.90;;;;;;5003859;28;20037;-74
2021/10/01 20:49:52;;;;;;;1.27;0.95;;;14.10;99.90;;;;;;5002644;28;20058;-73
2021/10/01 20:52:19;;;;;;;1.08;0.55;;;14.10;99.90;;;;;;5004771;28;20030;-73
2021/10/01 20:54:49;;;;;;;1.48;0.82;;;14.10;99.90;;;;;;5005362;28;20069;-74
2021/10/01 20:57:33;;;;;;;4.78;0.60;;;14.10;99.90;;;;;;5005027;28;20065;-74
2021/10/01 21:00:17;;;;;;;5.40;1.08;;;14.00;99.90;;;;;;4987398;28;20026;-74
2021/10/01 21:03:03;;;;;;;0.88;0.55;;;14.00;99.90;;;;;;5005323;28;20128;-75
2021/10/01 21:35:45;;;;;;;3.42;1.20;;;14.00;99.90;;;;;;5004443;28;20037;-73
2021/10/01 21:38:20;;;;;;;1.63;0.95;;;13.30;99.90;;;;;;5004182;28;20041;-70
2021/10/01 21:46:37;;;;;;;3.83;2.17;;;13.10;99.90;;;;;;5007839;28;19928;-71
2021/10/01 21:49:05;;;;;;;3.67;1.42;;;13.10;99.90;;;;;;5007654;28;20038;-71
2021/10/01 21:51:39;;;;;;;4.63;1.65;;;13.00;99.90;;;;;;5008258;28;20054;-71
2021/10/01 21:54:05;;;;;;;6.25;1.45;;;13.00;99.90;;;;;;5002392;28;20037;-73
2021/10/01 21:56:33;;;;;;;3.08;1.48;;;13.00;99.90;;;;;;4995542;28;20031;-72
2021/10/01 21:59:08;;;;;;;5.43;1.73;;;12.90;99.90;;;;;;5007352;28;20025;-71
2021/10/01 22:01:36;;;;;;;3.30;1.75;;;12.90;99.90;;;;;;5003140;28;20026;-71